sensor_id;sensor_type;location;lat;lon;timestamp;P1;durP1;ratioP1;P2;durP2;ratioP2
28180;SDS011;15464;50.988;10.318;2023-04-30T00:02:25;20.23;;;18.08;;
28180;SDS011;15464;50.988;10.318;2023-04-30T00:04:52;21.10;;;18.90;;
28180;SDS011;15464;50.988;10.318;2023-04-30T00:07:18;20.75;;;18.65;;
28180;SDS011;15464;50.988;10.318;2023-04-30T00:09:45;16.60;;;14.68;;
28180;SDS011;15464;50.988;10.318;2023-04-30T00:12:12;15.05;;;13.65;;
28180;SDS011;15464;50.988;10.318;2023-04-30T00:14:38;17.45;;;14.25;;
28180;SDS011;15464;50.988;10.318;2023-04-30T00:17:05;16.98;;;13.65;;
28180;SDS011;15464;50.988;10.318;2023-04-30T00:19:32;16.55;;;14.68;;
28180;SDS011;15464;50.988;10.318;2023-04-30T00:21:59;16.55;;;14.85;;
28180;SDS011;15464;50.988;10.318;2023-04-30T00:24:29;15.52;;;13.93;;
28180;SDS011;15464;50.988;10.318;2023-04-30T00:26:55;16.83;;;15.10;;
28180;SDS011;15464;50.988;10.318;2023-04-30T00:29:22;15.00;;;13.45;;
28180;SDS011;15464;50.988;10.318;2023-04-30T00:31:49;15.85;;;14.25;;
28180;SDS011;15464;50.988;10.318;2023-04-30T00:34:15;14.85;;;13.25;;
28180;SDS011;15464;50.988;10.318;2023-04-30T00:36:42;13.98;;;12.57;;
28180;SDS011;15464;50.988;10.318;2023-04-30T00:39:09;20.27;;;15.15;;
28180;SDS011;15464;50.988;10.318;2023-04-30T00:41:35;16.77;;;13.63;;
28180;SDS011;15464;50.988;10.318;2023-04-30T00:44:02;16.58;;;14.88;;
28180;SDS011;15464;50.988;10.318;2023-04-30T00:46:29;13.45;;;12.07;;
28180;SDS011;15464;50.988;10.318;2023-04-30T00:48:56;19.95;;;17.30;;
28180;SDS011;15464;50.988;10.318;2023-04-30T00:51:25;23.43;;;17.73;;
28180;SDS011;15464;50.988;10.318;2023-04-30T00:53:52;21.27;;;17.33;;
28180;SDS011;15464;50.988;10.318;2023-04-30T00:56:19;16.48;;;14.77;;
28180;SDS011;15464;50.988;10.318;2023-04-30T00:58:46;16.65;;;15.05;;
28180;SDS011;15464;50.988;10.318;2023-04-30T01:01:15;16.17;;;14.48;;
28180;SDS011;15464;50.988;10.318;2023-04-30T01:03:43;18.38;;;15.10;;
28180;SDS011;15464;50.988;10.318;2023-04-30T01:06:10;16.45;;;13.60;;
28180;SDS011;15464;50.988;10.318;2023-04-30T01:08:36;16.13;;;12.98;;
28180;SDS011;15464;50.988;10.318;2023-04-30T01:16:18;16.30;;;14.68;;
28180;SDS011;15464;50.988;10.318;2023-04-30T01:18:47;14.60;;;13.02;;
28180;SDS011;15464;50.988;10.318;2023-04-30T01:21:20;15.25;;;13.45;;
28180;SDS011;15464;50.988;10.318;2023-04-30T01:29:15;13.40;;;12.10;;
28180;SDS011;15464;50.988;10.318;2023-04-30T01:31:44;13.07;;;10.80;;
28180;SDS011;15464;50.988;10.318;2023-04-30T01:34:11;15.40;;;13.57;;
28180;SDS011;15464;50.988;10.318;2023-04-30T01:42:10;15.13;;;13.63;;
28180;SDS011;15464;50.988;10.318;2023-04-30T01:47:39;15.00;;;13.38;;
28180;SDS011;15464;50.988;10.318;2023-04-30T01:50:20;16.67;;;14.30;;
28180;SDS011;15464;50.988;10.318;2023-04-30T01:52:52;16.58;;;14.75;;
28180;SDS011;15464;50.988;10.318;2023-04-30T01:57:58;18.08;;;16.27;;
28180;SDS011;15464;50.988;10.318;2023-04-30T02:00:27;17.80;;;15.13;;
28180;SDS011;15464;50.988;10.318;2023-04-30T02:02:56;19.58;;;16.33;;
28180;SDS011;15464;50.988;10.318;2023-04-30T02:05:23;17.38;;;15.10;;
28180;SDS011;15464;50.988;10.318;2023-04-30T02:07:50;15.00;;;13.52;;
28180;SDS011;15464;50.988;10.318;2023-04-30T02:10:19;16.50;;;14.25;;
28180;SDS011;15464;50.988;10.318;2023-04-30T02:12:47;17.60;;;15.75;;
28180;SDS011;15464;50.988;10.318;2023-04-30T02:15:14;16.48;;;14.55;;
28180;SDS011;15464;50.988;10.318;2023-04-30T02:17:41;17.58;;;15.07;;
28180;SDS011;15464;50.988;10.318;2023-04-30T02:20:08;15.35;;;13.93;;
28180;SDS011;15464;50.988;10.318;2023-04-30T02:22:35;16.85;;;15.15;;
28180;SDS011;15464;50.988;10.318;2023-04-30T02:25:02;16.33;;;13.50;;
28180;SDS011;15464;50.988;10.318;2023-04-30T02:27:30;14.98;;;13.35;;
28180;SDS011;15464;50.988;10.318;2023-04-30T02:29:58;16.63;;;14.13;;
28180;SDS011;15464;50.988;10.318;2023-04-30T02:32:25;16.17;;;14.18;;
28180;SDS011;15464;50.988;10.318;2023-04-30T02:34:52;20.40;;;16.60;;
28180;SDS011;15464;50.988;10.318;2023-04-30T02:37:18;17.15;;;14.57;;
28180;SDS011;15464;50.988;10.318;2023-04-30T02:39:46;17.20;;;14.32;;
28180;SDS011;15464;50.988;10.318;2023-04-30T02:42:13;17.65;;;13.75;;
28180;SDS011;15464;50.988;10.318;2023-04-30T02:44:40;14.10;;;12.65;;
28180;SDS011;15464;50.988;10.318;2023-04-30T02:47:07;16.13;;;13.98;;
28180;SDS011;15464;50.988;10.318;2023-04-30T02:49:33;18.30;;;14.88;;
28180;SDS011;15464;50.988;10.318;2023-04-30T02:52:00;20.00;;;17.45;;
28180;SDS011;15464;50.988;10.318;2023-04-30T02:54:26;17.17;;;15.35;;
28180;SDS011;15464;50.988;10.318;2023-04-30T02:56:53;16.83;;;14.75;;
28180;SDS011;15464;50.988;10.318;2023-04-30T02:59:20;17.38;;;15.48;;
28180;SDS011;15464;50.988;10.318;2023-04-30T03:01:46;14.95;;;13.43;;
28180;SDS011;15464;50.988;10.318;2023-04-30T03:04:13;17.55;;;14.52;;
28180;SDS011;15464;50.988;10.318;2023-04-30T03:06:40;19.13;;;15.63;;
28180;SDS011;15464;50.988;10.318;2023-04-30T03:09:06;19.05;;;16.45;;
28180;SDS011;15464;50.988;10.318;2023-04-30T03:11:33;15.77;;;13.00;;
28180;SDS011;15464;50.988;10.318;2023-04-30T03:16:30;15.90;;;12.63;;
28180;SDS011;15464;50.988;10.318;2023-04-30T03:18:56;14.27;;;12.15;;
28180;SDS011;15464;50.988;10.318;2023-04-30T03:21:23;13.93;;;12.20;;
28180;SDS011;15464;50.988;10.318;2023-04-30T03:23:50;14.82;;;12.70;;
28180;SDS011;15464;50.988;10.318;2023-04-30T03:26:18;21.42;;;14.75;;
28180;SDS011;15464;50.988;10.318;2023-04-30T03:28:46;13.48;;;12.07;;
28180;SDS011;15464;50.988;10.318;2023-04-30T03:31:12;13.45;;;12.10;;
28180;SDS011;15464;50.988;10.318;2023-04-30T03:33:39;15.65;;;12.43;;
28180;SDS011;15464;50.988;10.318;2023-04-30T03:36:06;17.40;;;13.65;;
28180;SDS011;15464;50.988;10.318;2023-04-30T03:38:33;15.52;;;13.35;;
28180;SDS011;15464;50.988;10.318;2023-04-30T03:40:59;13.70;;;12.20;;
28180;SDS011;15464;50.988;10.318;2023-04-30T03:43:26;17.13;;;13.13;;
28180;SDS011;15464;50.988;10.318;2023-04-30T03:45:53;14.65;;;12.35;;
28180;SDS011;15464;50.988;10.318;2023-04-30T03:48:19;15.40;;;13.85;;
28180;SDS011;15464;50.988;10.318;2023-04-30T03:50:46;20.20;;;16.45;;
28180;SDS011;15464;50.988;10.318;2023-04-30T03:53:13;18.63;;;16.27;;
28180;SDS011;15464;50.988;10.318;2023-04-30T03:55:40;16.58;;;14.20;;
28180;SDS011;15464;50.988;10.318;2023-04-30T03:58:07;14.20;;;11.90;;
28180;SDS011;15464;50.988;10.318;2023-04-30T04:00:34;16.30;;;13.50;;
28180;SDS011;15464;50.988;10.318;2023-04-30T04:03:00;16.40;;;14.18;;
28180;SDS011;15464;50.988;10.318;2023-04-30T04:05:27;15.73;;;13.10;;
28180;SDS011;15464;50.988;10.318;2023-04-30T04:07:55;16.98;;;13.73;;
28180;SDS011;15464;50.988;10.318;2023-04-30T04:10:22;14.82;;;11.00;;
28180;SDS011;15464;50.988;10.318;2023-04-30T04:12:49;13.95;;;11.32;;
28180;SDS011;15464;50.988;10.318;2023-04-30T04:15:16;14.07;;;12.43;;
28180;SDS011;15464;50.988;10.318;2023-04-30T04:17:42;14.05;;;12.15;;
28180;SDS011;15464;50.988;10.318;2023-04-30T04:20:09;13.50;;;11.90;;
28180;SDS011;15464;50.988;10.318;2023-04-30T04:22:39;12.77;;;11.20;;
28180;SDS011;15464;50.988;10.318;2023-04-30T04:25:05;13.02;;;11.70;;
28180;SDS011;15464;50.988;10.318;2023-04-30T04:27:32;14.15;;;11.40;;
28180;SDS011;15464;50.988;10.318;2023-04-30T04:30:00;34.25;;;20.55;;
28180;SDS011;15464;50.988;10.318;2023-04-30T04:32:27;31.23;;;19.42;;
28180;SDS011;15464;50.988;10.318;2023-04-30T04:34:55;37.30;;;19.92;;
28180;SDS011;15464;50.988;10.318;2023-04-30T04:37:22;34.80;;;19.88;;
28180;SDS011;15464;50.988;10.318;2023-04-30T04:39:49;27.35;;;17.92;;
28180;SDS011;15464;50.988;10.318;2023-04-30T04:42:17;27.75;;;19.30;;
28180;SDS011;15464;50.988;10.318;2023-04-30T04:44:44;24.63;;;16.95;;
28180;SDS011;15464;50.988;10.318;2023-04-30T04:47:11;27.38;;;15.82;;
28180;SDS011;15464;50.988;10.318;2023-04-30T04:49:38;20.63;;;14.45;;
28180;SDS011;15464;50.988;10.318;2023-04-30T04:52:05;22.52;;;16.63;;
28180;SDS011;15464;50.988;10.318;2023-04-30T04:54:32;18.98;;;14.63;;
28180;SDS011;15464;50.988;10.318;2023-04-30T04:56:59;18.30;;;13.45;;
28180;SDS011;15464;50.988;10.318;2023-04-30T04:59:25;16.15;;;10.85;;
28180;SDS011;15464;50.988;10.318;2023-04-30T05:01:52;14.68;;;11.98;;
28180;SDS011;15464;50.988;10.318;2023-04-30T05:04:19;14.75;;;11.82;;
28180;SDS011;15464;50.988;10.318;2023-04-30T05:06:46;15.95;;;12.70;;
28180;SDS011;15464;50.988;10.318;2023-04-30T05:09:12;12.77;;;10.15;;
28180;SDS011;15464;50.988;10.318;2023-04-30T05:11:39;11.27;;;9.57;;
28180;SDS011;15464;50.988;10.318;2023-04-30T05:14:06;13.18;;;11.63;;
28180;SDS011;15464;50.988;10.318;2023-04-30T05:16:33;12.35;;;11.02;;
28180;SDS011;15464;50.988;10.318;2023-04-30T05:19:00;13.35;;;11.95;;
28180;SDS011;15464;50.988;10.318;2023-04-30T05:21:27;13.30;;;12.00;;
28180;SDS011;15464;50.988;10.318;2023-04-30T05:23:55;14.52;;;12.63;;
28180;SDS011;15464;50.988;10.318;2023-04-30T05:26:21;14.77;;;12.18;;
28180;SDS011;15464;50.988;10.318;2023-04-30T05:28:49;14.55;;;13.05;;
28180;SDS011;15464;50.988;10.318;2023-04-30T05:31:17;12.68;;;11.15;;
28180;SDS011;15464;50.988;10.318;2023-04-30T05:33:46;17.25;;;14.13;;
28180;SDS011;15464;50.988;10.318;2023-04-30T05:36:13;14.88;;;13.27;;
28180;SDS011;15464;50.988;10.318;2023-04-30T05:38:40;16.75;;;12.95;;
28180;SDS011;15464;50.988;10.318;2023-04-30T05:41:08;14.55;;;13.07;;
28180;SDS011;15464;50.988;10.318;2023-04-30T05:43:37;16.55;;;13.45;;
28180;SDS011;15464;50.988;10.318;2023-04-30T05:46:03;18.35;;;15.07;;
28180;SDS011;15464;50.988;10.318;2023-04-30T05:48:30;14.43;;;12.25;;
28180;SDS011;15464;50.988;10.318;2023-04-30T05:50:57;16.83;;;15.02;;
28180;SDS011;15464;50.988;10.318;2023-04-30T05:53:24;17.05;;;14.80;;
28180;SDS011;15464;50.988;10.318;2023-04-30T05:55:50;15.82;;;13.13;;
28180;SDS011;15464;50.988;10.318;2023-04-30T05:58:17;15.00;;;12.70;;
28180;SDS011;15464;50.988;10.318;2023-04-30T06:00:47;15.27;;;13.63;;
28180;SDS011;15464;50.988;10.318;2023-04-30T06:03:14;15.30;;;13.75;;
28180;SDS011;15464;50.988;10.318;2023-04-30T06:05:41;14.73;;;13.13;;
28180;SDS011;15464;50.988;10.318;2023-04-30T06:08:08;18.23;;;12.98;;
28180;SDS011;15464;50.988;10.318;2023-04-30T06:10:35;14.60;;;12.73;;
28180;SDS011;15464;50.988;10.318;2023-04-30T06:13:01;17.35;;;15.55;;
28180;SDS011;15464;50.988;10.318;2023-04-30T06:15:28;16.38;;;13.63;;
28180;SDS011;15464;50.988;10.318;2023-04-30T06:17:55;17.10;;;12.63;;
28180;SDS011;15464;50.988;10.318;2023-04-30T06:20:22;17.33;;;14.02;;
28180;SDS011;15464;50.988;10.318;2023-04-30T06:22:48;16.88;;;12.57;;
28180;SDS011;15464;50.988;10.318;2023-04-30T06:25:15;14.75;;;13.23;;
28180;SDS011;15464;50.988;10.318;2023-04-30T06:27:42;16.23;;;12.63;;
28180;SDS011;15464;50.988;10.318;2023-04-30T06:30:09;15.38;;;12.60;;
28180;SDS011;15464;50.988;10.318;2023-04-30T06:32:36;15.70;;;11.85;;
28180;SDS011;15464;50.988;10.318;2023-04-30T06:35:03;12.45;;;11.10;;
28180;SDS011;15464;50.988;10.318;2023-04-30T06:37:30;16.17;;;12.52;;
28180;SDS011;15464;50.988;10.318;2023-04-30T06:40:03;12.45;;;10.43;;
28180;SDS011;15464;50.988;10.318;2023-04-30T06:42:31;11.00;;;9.80;;
28180;SDS011;15464;50.988;10.318;2023-04-30T06:45:00;11.43;;;8.07;;
28180;SDS011;15464;50.988;10.318;2023-04-30T06:47:29;12.35;;;7.88;;
28180;SDS011;15464;50.988;10.318;2023-04-30T06:50:00;9.40;;;7.15;;
28180;SDS011;15464;50.988;10.318;2023-04-30T06:52:27;11.60;;;9.70;;
28180;SDS011;15464;50.988;10.318;2023-04-30T06:54:55;12.18;;;9.48;;
28180;SDS011;15464;50.988;10.318;2023-04-30T06:57:21;15.38;;;11.18;;
28180;SDS011;15464;50.988;10.318;2023-04-30T06:59:49;14.13;;;10.60;;
28180;SDS011;15464;50.988;10.318;2023-04-30T07:02:17;14.75;;;12.30;;
28180;SDS011;15464;50.988;10.318;2023-04-30T07:04:47;14.68;;;11.75;;
28180;SDS011;15464;50.988;10.318;2023-04-30T07:07:14;15.55;;;12.40;;
28180;SDS011;15464;50.988;10.318;2023-04-30T07:09:41;14.23;;;11.82;;
28180;SDS011;15464;50.988;10.318;2023-04-30T07:12:08;15.20;;;12.10;;
28180;SDS011;15464;50.988;10.318;2023-04-30T07:14:36;14.18;;;12.52;;
28180;SDS011;15464;50.988;10.318;2023-04-30T07:17:03;16.48;;;13.63;;
28180;SDS011;15464;50.988;10.318;2023-04-30T07:19:29;15.38;;;12.70;;
28180;SDS011;15464;50.988;10.318;2023-04-30T07:21:57;17.05;;;12.35;;
28180;SDS011;15464;50.988;10.318;2023-04-30T07:24:24;15.43;;;11.85;;
28180;SDS011;15464;50.988;10.318;2023-04-30T07:26:51;18.05;;;12.90;;
28180;SDS011;15464;50.988;10.318;2023-04-30T07:29:17;16.27;;;12.60;;
28180;SDS011;15464;50.988;10.318;2023-04-30T07:31:44;14.88;;;11.60;;
28180;SDS011;15464;50.988;10.318;2023-04-30T07:34:11;16.90;;;13.55;;
28180;SDS011;15464;50.988;10.318;2023-04-30T07:36:38;12.07;;;10.82;;
28180;SDS011;15464;50.988;10.318;2023-04-30T07:39:05;14.57;;;13.07;;
28180;SDS011;15464;50.988;10.318;2023-04-30T07:41:33;17.95;;;13.60;;
28180;SDS011;15464;50.988;10.318;2023-04-30T07:44:00;16.27;;;13.75;;
28180;SDS011;15464;50.988;10.318;2023-04-30T07:46:26;16.48;;;13.65;;
28180;SDS011;15464;50.988;10.318;2023-04-30T07:48:53;13.80;;;12.45;;
28180;SDS011;15464;50.988;10.318;2023-04-30T07:51:20;16.75;;;13.27;;
28180;SDS011;15464;50.988;10.318;2023-04-30T07:53:47;14.48;;;12.95;;
28180;SDS011;15464;50.988;10.318;2023-04-30T07:56:13;13.98;;;12.18;;
28180;SDS011;15464;50.988;10.318;2023-04-30T07:58:41;17.08;;;13.95;;
28180;SDS011;15464;50.988;10.318;2023-04-30T08:01:07;15.77;;;13.85;;
28180;SDS011;15464;50.988;10.318;2023-04-30T08:03:34;13.95;;;12.48;;
28180;SDS011;15464;50.988;10.318;2023-04-30T08:06:02;13.98;;;12.48;;
28180;SDS011;15464;50.988;10.318;2023-04-30T08:08:30;15.77;;;13.20;;
28180;SDS011;15464;50.988;10.318;2023-04-30T08:10:56;15.43;;;12.95;;
28180;SDS011;15464;50.988;10.318;2023-04-30T08:13:23;15.95;;;13.10;;
28180;SDS011;15464;50.988;10.318;2023-04-30T08:15:50;15.35;;;12.32;;
28180;SDS011;15464;50.988;10.318;2023-04-30T08:18:16;13.82;;;12.23;;
28180;SDS011;15464;50.988;10.318;2023-04-30T08:20:43;12.45;;;10.93;;
28180;SDS011;15464;50.988;10.318;2023-04-30T08:23:10;16.45;;;13.07;;
28180;SDS011;15464;50.988;10.318;2023-04-30T08:25:37;11.30;;;10.10;;
28180;SDS011;15464;50.988;10.318;2023-04-30T08:28:04;14.45;;;12.15;;
28180;SDS011;15464;50.988;10.318;2023-04-30T08:30:32;14.90;;;11.65;;
28180;SDS011;15464;50.988;10.318;2023-04-30T08:32:58;14.88;;;11.88;;
28180;SDS011;15464;50.988;10.318;2023-04-30T08:35:25;14.23;;;11.18;;
28180;SDS011;15464;50.988;10.318;2023-04-30T08:37:52;13.68;;;11.65;;
28180;SDS011;15464;50.988;10.318;2023-04-30T08:40:19;11.55;;;10.15;;
28180;SDS011;15464;50.988;10.318;2023-04-30T08:45:34;15.07;;;11.77;;
28180;SDS011;15464;50.988;10.318;2023-04-30T08:48:02;12.60;;;10.52;;
28180;SDS011;15464;50.988;10.318;2023-04-30T08:50:30;9.70;;;8.30;;
28180;SDS011;15464;50.988;10.318;2023-04-30T08:52:57;10.70;;;9.57;;
28180;SDS011;15464;50.988;10.318;2023-04-30T08:55:27;10.75;;;8.85;;
28180;SDS011;15464;50.988;10.318;2023-04-30T08:57:55;11.40;;;9.40;;
28180;SDS011;15464;50.988;10.318;2023-04-30T09:00:21;8.77;;;7.97;;
28180;SDS011;15464;50.988;10.318;2023-04-30T09:02:48;10.70;;;9.30;;
28180;SDS011;15464;50.988;10.318;2023-04-30T09:05:15;11.57;;;9.50;;
28180;SDS011;15464;50.988;10.318;2023-04-30T09:07:42;11.23;;;10.13;;
28180;SDS011;15464;50.988;10.318;2023-04-30T09:10:16;9.90;;;8.90;;
28180;SDS011;15464;50.988;10.318;2023-04-30T09:12:46;9.13;;;8.20;;
28180;SDS011;15464;50.988;10.318;2023-04-30T09:15:35;9.18;;;8.27;;
28180;SDS011;15464;50.988;10.318;2023-04-30T09:20:37;11.20;;;9.10;;
28180;SDS011;15464;50.988;10.318;2023-04-30T09:23:19;10.30;;;9.20;;
28180;SDS011;15464;50.988;10.318;2023-04-30T09:25:46;9.80;;;8.80;;
28180;SDS011;15464;50.988;10.318;2023-04-30T09:28:13;10.05;;;8.23;;
28180;SDS011;15464;50.988;10.318;2023-04-30T09:30:40;10.13;;;8.63;;
28180;SDS011;15464;50.988;10.318;2023-04-30T09:33:07;9.80;;;8.75;;
28180;SDS011;15464;50.988;10.318;2023-04-30T09:35:38;10.68;;;8.98;;
28180;SDS011;15464;50.988;10.318;2023-04-30T09:38:07;10.35;;;9.27;;
28180;SDS011;15464;50.988;10.318;2023-04-30T09:40:50;10.10;;;8.68;;
28180;SDS011;15464;50.988;10.318;2023-04-30T09:43:16;10.30;;;8.25;;
28180;SDS011;15464;50.988;10.318;2023-04-30T09:45:44;9.38;;;8.27;;
28180;SDS011;15464;50.988;10.318;2023-04-30T09:48:26;11.57;;;8.38;;
28180;SDS011;15464;50.988;10.318;2023-04-30T09:50:55;8.70;;;7.88;;
28180;SDS011;15464;50.988;10.318;2023-04-30T09:53:22;9.18;;;7.97;;
28180;SDS011;15464;50.988;10.318;2023-04-30T09:55:50;8.27;;;7.43;;
28180;SDS011;15464;50.988;10.318;2023-04-30T09:58:17;9.27;;;8.38;;
28180;SDS011;15464;50.988;10.318;2023-04-30T10:00:45;10.43;;;9.27;;
28180;SDS011;15464;50.988;10.318;2023-04-30T10:03:14;8.75;;;7.95;;
28180;SDS011;15464;50.988;10.318;2023-04-30T10:05:43;9.93;;;7.70;;
28180;SDS011;15464;50.988;10.318;2023-04-30T10:08:25;8.93;;;8.02;;
28180;SDS011;15464;50.988;10.318;2023-04-30T10:10:55;10.38;;;8.20;;
28180;SDS011;15464;50.988;10.318;2023-04-30T10:13:25;8.20;;;7.15;;
28180;SDS011;15464;50.988;10.318;2023-04-30T10:16:00;8.80;;;7.07;;
28180;SDS011;15464;50.988;10.318;2023-04-30T10:18:50;8.75;;;7.63;;
28180;SDS011;15464;50.988;10.318;2023-04-30T10:21:22;8.40;;;7.07;;
28180;SDS011;15464;50.988;10.318;2023-04-30T10:23:53;7.10;;;6.40;;
28180;SDS011;15464;50.988;10.318;2023-04-30T10:26:20;7.20;;;6.50;;
28180;SDS011;15464;50.988;10.318;2023-04-30T10:28:47;8.27;;;6.88;;
28180;SDS011;15464;50.988;10.318;2023-04-30T10:31:15;7.25;;;6.55;;
28180;SDS011;15464;50.988;10.318;2023-04-30T10:39:06;6.65;;;5.90;;
28180;SDS011;15464;50.988;10.318;2023-04-30T10:41:33;6.85;;;6.15;;
28180;SDS011;15464;50.988;10.318;2023-04-30T10:44:00;7.22;;;6.55;;
28180;SDS011;15464;50.988;10.318;2023-04-30T10:46:28;8.75;;;6.32;;
28180;SDS011;15464;50.988;10.318;2023-04-30T10:48:54;7.47;;;5.93;;
28180;SDS011;15464;50.988;10.318;2023-04-30T10:51:21;6.75;;;6.05;;
28180;SDS011;15464;50.988;10.318;2023-04-30T10:53:51;8.43;;;5.95;;
28180;SDS011;15464;50.988;10.318;2023-04-30T10:56:30;8.55;;;5.93;;
28180;SDS011;15464;50.988;10.318;2023-04-30T10:58:58;7.10;;;5.82;;
28180;SDS011;15464;50.988;10.318;2023-04-30T11:01:27;6.00;;;5.40;;
28180;SDS011;15464;50.988;10.318;2023-04-30T11:04:05;6.68;;;5.35;;
28180;SDS011;15464;50.988;10.318;2023-04-30T11:10:05;6.32;;;5.70;;
28180;SDS011;15464;50.988;10.318;2023-04-30T11:12:20;7.30;;;5.57;;
28180;SDS011;15464;50.988;10.318;2023-04-30T11:15:05;6.05;;;5.45;;
28180;SDS011;15464;50.988;10.318;2023-04-30T11:17:38;5.43;;;4.85;;
28180;SDS011;15464;50.988;10.318;2023-04-30T11:20:05;5.03;;;4.47;;
28180;SDS011;15464;50.988;10.318;2023-04-30T11:22:33;5.57;;;4.78;;
28180;SDS011;15464;50.988;10.318;2023-04-30T11:27:41;7.05;;;5.18;;
28180;SDS011;15464;50.988;10.318;2023-04-30T11:30:11;7.88;;;4.93;;
28180;SDS011;15464;50.988;10.318;2023-04-30T11:32:42;5.00;;;4.50;;
28180;SDS011;15464;50.988;10.318;2023-04-30T11:35:12;6.75;;;5.15;;
28180;SDS011;15464;50.988;10.318;2023-04-30T11:37:43;7.57;;;4.85;;
28180;SDS011;15464;50.988;10.318;2023-04-30T11:40:11;6.88;;;5.10;;
28180;SDS011;15464;50.988;10.318;2023-04-30T11:42:40;5.18;;;4.60;;
28180;SDS011;15464;50.988;10.318;2023-04-30T11:45:13;7.63;;;4.20;;
28180;SDS011;15464;50.988;10.318;2023-04-30T11:47:46;5.68;;;4.85;;
28180;SDS011;15464;50.988;10.318;2023-04-30T11:50:21;6.00;;;4.57;;
28180;SDS011;15464;50.988;10.318;2023-04-30T11:52:56;4.88;;;4.00;;
28180;SDS011;15464;50.988;10.318;2023-04-30T11:55:24;6.78;;;3.72;;
28180;SDS011;15464;50.988;10.318;2023-04-30T11:57:53;4.95;;;3.17;;
28180;SDS011;15464;50.988;10.318;2023-04-30T12:00:26;3.70;;;3.30;;
28180;SDS011;15464;50.988;10.318;2023-04-30T12:02:56;4.18;;;3.58;;
28180;SDS011;15464;50.988;10.318;2023-04-30T12:05:26;3.72;;;3.42;;
28180;SDS011;15464;50.988;10.318;2023-04-30T12:07:56;3.38;;;3.00;;
28180;SDS011;15464;50.988;10.318;2023-04-30T12:10:25;3.78;;;2.88;;
28180;SDS011;15464;50.988;10.318;2023-04-30T12:12:52;4.20;;;3.00;;
28180;SDS011;15464;50.988;10.318;2023-04-30T12:15:20;3.35;;;3.05;;
28180;SDS011;15464;50.988;10.318;2023-04-30T12:17:53;4.47;;;2.78;;
28180;SDS011;15464;50.988;10.318;2023-04-30T12:20:22;5.75;;;3.15;;
28180;SDS011;15464;50.988;10.318;2023-04-30T12:22:50;3.50;;;2.90;;
28180;SDS011;15464;50.988;10.318;2023-04-30T12:25:18;4.95;;;3.30;;
28180;SDS011;15464;50.988;10.318;2023-04-30T12:27:49;5.18;;;3.65;;
28180;SDS011;15464;50.988;10.318;2023-04-30T12:30:23;4.53;;;3.72;;
28180;SDS011;15464;50.988;10.318;2023-04-30T12:32:52;4.32;;;3.33;;
28180;SDS011;15464;50.988;10.318;2023-04-30T12:35:22;5.78;;;3.40;;
28180;SDS011;15464;50.988;10.318;2023-04-30T12:37:50;5.07;;;3.40;;
28180;SDS011;15464;50.988;10.318;2023-04-30T12:42:47;4.43;;;3.60;;
28180;SDS011;15464;50.988;10.318;2023-04-30T12:48:23;6.20;;;3.45;;
28180;SDS011;15464;50.988;10.318;2023-04-30T12:50:54;3.75;;;3.45;;
28180;SDS011;15464;50.988;10.318;2023-04-30T12:53:25;5.50;;;4.18;;
28180;SDS011;15464;50.988;10.318;2023-04-30T13:01:19;5.80;;;3.60;;
28180;SDS011;15464;50.988;10.318;2023-04-30T13:03:48;5.65;;;3.35;;
28180;SDS011;15464;50.988;10.318;2023-04-30T13:06:16;5.10;;;3.47;;
28180;SDS011;15464;50.988;10.318;2023-04-30T13:08:43;4.90;;;4.05;;
28180;SDS011;15464;50.988;10.318;2023-04-30T13:11:24;5.35;;;3.78;;
28180;SDS011;15464;50.988;10.318;2023-04-30T13:13:52;5.82;;;3.70;;
28180;SDS011;15464;50.988;10.318;2023-04-30T13:16:21;5.65;;;3.95;;
28180;SDS011;15464;50.988;10.318;2023-04-30T13:18:50;3.88;;;3.15;;
28180;SDS011;15464;50.988;10.318;2023-04-30T13:21:17;3.83;;;3.15;;
28180;SDS011;15464;50.988;10.318;2023-04-30T13:23:43;5.97;;;3.53;;
28180;SDS011;15464;50.988;10.318;2023-04-30T13:26:18;4.68;;;3.70;;
28180;SDS011;15464;50.988;10.318;2023-04-30T13:28:45;5.03;;;3.30;;
28180;SDS011;15464;50.988;10.318;2023-04-30T13:31:12;5.57;;;4.07;;
28180;SDS011;15464;50.988;10.318;2023-04-30T13:33:39;5.15;;;3.67;;
28180;SDS011;15464;50.988;10.318;2023-04-30T13:36:05;4.65;;;3.97;;
28180;SDS011;15464;50.988;10.318;2023-04-30T13:38:32;4.97;;;3.80;;
28180;SDS011;15464;50.988;10.318;2023-04-30T13:40:59;5.10;;;3.92;;
28180;SDS011;15464;50.988;10.318;2023-04-30T13:43:26;5.63;;;4.07;;
28180;SDS011;15464;50.988;10.318;2023-04-30T13:45:52;5.57;;;4.00;;
28180;SDS011;15464;50.988;10.318;2023-04-30T13:48:19;4.68;;;3.80;;
28180;SDS011;15464;50.988;10.318;2023-04-30T13:50:46;4.78;;;3.85;;
28180;SDS011;15464;50.988;10.318;2023-04-30T13:53:12;4.53;;;3.50;;
28180;SDS011;15464;50.988;10.318;2023-04-30T13:55:39;5.82;;;3.65;;
28180;SDS011;15464;50.988;10.318;2023-04-30T13:58:06;5.43;;;4.13;;
28180;SDS011;15464;50.988;10.318;2023-04-30T14:00:32;5.22;;;3.20;;
28180;SDS011;15464;50.988;10.318;2023-04-30T14:02:59;7.07;;;3.95;;
28180;SDS011;15464;50.988;10.318;2023-04-30T14:05:26;5.15;;;3.90;;
28180;SDS011;15464;50.988;10.318;2023-04-30T14:07:53;5.90;;;4.18;;
28180;SDS011;15464;50.988;10.318;2023-04-30T14:10:19;3.67;;;3.17;;
28180;SDS011;15464;50.988;10.318;2023-04-30T14:12:46;3.78;;;3.08;;
28180;SDS011;15464;50.988;10.318;2023-04-30T14:15:14;4.00;;;3.10;;
28180;SDS011;15464;50.988;10.318;2023-04-30T14:17:40;5.57;;;3.30;;
28180;SDS011;15464;50.988;10.318;2023-04-30T14:20:07;6.25;;;3.08;;
28180;SDS011;15464;50.988;10.318;2023-04-30T14:22:34;4.25;;;3.58;;
28180;SDS011;15464;50.988;10.318;2023-04-30T14:25:03;5.20;;;3.70;;
28180;SDS011;15464;50.988;10.318;2023-04-30T14:27:31;5.30;;;3.33;;
28180;SDS011;15464;50.988;10.318;2023-04-30T14:29:57;4.22;;;3.47;;
28180;SDS011;15464;50.988;10.318;2023-04-30T14:32:24;5.07;;;3.92;;
28180;SDS011;15464;50.988;10.318;2023-04-30T14:34:52;4.35;;;3.28;;
28180;SDS011;15464;50.988;10.318;2023-04-30T14:37:19;4.28;;;2.92;;
28180;SDS011;15464;50.988;10.318;2023-04-30T14:39:45;4.47;;;2.70;;
28180;SDS011;15464;50.988;10.318;2023-04-30T14:42:12;4.88;;;3.17;;
28180;SDS011;15464;50.988;10.318;2023-04-30T14:44:39;7.68;;;3.05;;
28180;SDS011;15464;50.988;10.318;2023-04-30T14:47:07;4.80;;;2.67;;
28180;SDS011;15464;50.988;10.318;2023-04-30T14:49:33;5.78;;;2.90;;
28180;SDS011;15464;50.988;10.318;2023-04-30T14:52:00;4.95;;;2.67;;
28180;SDS011;15464;50.988;10.318;2023-04-30T14:54:27;3.63;;;3.08;;
28180;SDS011;15464;50.988;10.318;2023-04-30T14:56:54;4.68;;;3.90;;
28180;SDS011;15464;50.988;10.318;2023-04-30T14:59:20;4.70;;;3.60;;
28180;SDS011;15464;50.988;10.318;2023-04-30T15:01:47;6.00;;;3.70;;
28180;SDS011;15464;50.988;10.318;2023-04-30T15:04:14;4.80;;;3.25;;
28180;SDS011;15464;50.988;10.318;2023-04-30T15:06:41;7.60;;;3.35;;
28180;SDS011;15464;50.988;10.318;2023-04-30T15:09:08;4.00;;;3.35;;
28180;SDS011;15464;50.988;10.318;2023-04-30T15:11:36;5.28;;;3.25;;
28180;SDS011;15464;50.988;10.318;2023-04-30T15:14:03;3.97;;;3.45;;
28180;SDS011;15464;50.988;10.318;2023-04-30T15:16:29;4.53;;;3.50;;